SBPL/PNZ METAR and TAF weather

Enter ICAO airport designator
Station Type Date Time Source
SBPL METAR 2020/01/21 09:00 UTC NOAA

SBPL 210900Z 00000KT 9999 BKN022 26/18 Q1012


Station Type Date Time Source
SBPL Decoded METAR 2020/01/21 09:00 UTC NOAA

Petrolina , Brazil (SBPL) 09-21S 040-33W
Jan 21, 2020 - 04:00 AM EST / 2020.01.21 0900 UTC
Wind: Calm:0
Visibility: greater than 7 mile(s):0
Sky conditions: mostly cloudy
Temperature: 78 F (26 C)
Dew Point: 64 F (18 C)
Relative Humidity: 61%
Pressure (altimeter): 29.88 in. Hg (1012 hPa)
ob: SBPL 210900Z 00000KT 9999 BKN022 26/18 Q1012
cycle: 9

Station Type Date Time Source
SBPL TAF 2020/01/21 06:10 UTC NOAA

TAF SBPL 210400Z 2106/2206 12005KT CAVOK TN25/2108Z TX36/2118Z
BECMG 2110/2112 16008KT SCT025
BECMG 2115/2117 13013KT FEW040
BECMG 2121/2123 15005KT
RMK PEH

Example: see airport list